createdAt,value
2023-11-23T00:04:45.476Z,14.00
2023-11-23T00:09:48.947Z,13.97
2023-11-23T00:14:52.866Z,13.37
2023-11-23T00:19:58.872Z,13.77
2023-11-23T00:25:04.537Z,18.07
2023-11-23T00:30:09.463Z,12.80
2023-11-23T00:35:15.247Z,12.93
2023-11-23T00:40:18.770Z,15.33
2023-11-23T00:45:22.797Z,15.73
2023-11-23T00:50:29.023Z,14.47
2023-11-23T00:55:32.611Z,16.10
2023-11-23T01:00:36.333Z,15.33
2023-11-23T01:05:41.528Z,15.03
2023-11-23T01:10:45.011Z,15.77
2023-11-23T01:15:48.373Z,13.53
2023-11-23T01:20:53.326Z,14.90
2023-11-23T01:25:56.722Z,16.17
2023-11-23T01:31:00.202Z,16.87
2023-11-23T01:36:05.494Z,14.27
2023-11-23T01:41:08.867Z,13.23
2023-11-23T01:46:13.458Z,16.40
2023-11-23T01:51:18.765Z,13.27
2023-11-23T01:56:23.670Z,14.63
2023-11-23T02:01:27.129Z,13.37
2023-11-23T02:06:31.931Z,12.37
2023-11-23T02:11:35.415Z,13.77
2023-11-23T02:16:39.211Z,11.77
2023-11-23T02:21:44.978Z,14.63
2023-11-23T02:26:49.738Z,12.80
2023-11-23T02:31:53.141Z,14.27
2023-11-23T02:36:56.918Z,12.17
2023-11-23T02:42:02.688Z,11.93
2023-11-23T02:47:06.231Z,12.00
2023-11-23T02:52:09.770Z,10.67
2023-11-23T02:57:14.738Z,13.73
2023-11-23T03:02:18.189Z,13.17
2023-11-23T03:07:21.886Z,12.63
2023-11-23T03:12:28.350Z,11.83
2023-11-23T03:17:31.653Z,10.70
2023-11-23T03:22:35.236Z,11.27
2023-11-23T03:27:40.178Z,9.37
2023-11-23T03:32:43.687Z,10.60
2023-11-23T03:37:47.078Z,10.33
2023-11-23T03:42:51.830Z,9.90
2023-11-23T03:47:55.317Z,10.87
2023-11-23T03:52:58.676Z,9.87
2023-11-23T03:58:05.368Z,10.70
2023-11-23T04:03:08.958Z,11.30
2023-11-23T04:08:12.398Z,10.60
2023-11-23T04:13:17.243Z,9.80
2023-11-23T04:18:20.758Z,8.90
2023-11-23T04:23:24.213Z,9.70
2023-11-23T04:28:28.861Z,8.07
2023-11-23T04:33:33.086Z,8.53
2023-11-23T04:38:36.525Z,9.37
2023-11-23T04:43:41.991Z,9.10
2023-11-23T04:48:45.507Z,8.00
2023-11-23T04:53:49.322Z,8.63
2023-11-23T04:58:54.231Z,8.77
2023-11-23T05:04:00.242Z,8.17
2023-11-23T05:09:05.545Z,7.73
2023-11-23T05:14:10.648Z,7.17
2023-11-23T05:19:21.547Z,8.67
2023-11-23T05:24:31.502Z,7.70
2023-11-23T05:29:36.710Z,51.97
2023-11-23T05:34:40.165Z,7.80
2023-11-23T05:39:44.692Z,6.80
2023-11-23T05:44:49.665Z,7.93
2023-11-23T05:49:52.988Z,7.00
2023-11-23T05:54:56.669Z,7.83
2023-11-23T06:00:01.700Z,5.97
2023-11-23T06:05:05.393Z,7.47
2023-11-23T06:10:09.029Z,7.50
2023-11-23T06:15:19.547Z,7.83
2023-11-23T06:27:31.785Z,6.87
2023-11-23T06:32:37.491Z,7.00
2023-11-23T06:37:42.448Z,6.67
2023-11-23T06:42:46.086Z,7.27
2023-11-23T06:47:51.201Z,6.83
2023-11-23T06:52:54.889Z,7.07
2023-11-23T06:57:58.825Z,7.10
2023-11-23T07:03:03.872Z,6.50
2023-11-23T07:08:07.326Z,7.40
2023-11-23T07:13:10.998Z,6.40
2023-11-23T07:18:17.383Z,5.63
2023-11-23T07:23:22.657Z,5.50
2023-11-23T07:28:28.776Z,5.17
2023-11-23T07:33:36.491Z,5.70
2023-11-23T07:38:40.282Z,4.90
2023-11-23T07:43:44.034Z,5.30
2023-11-23T07:48:54.081Z,5.33
2023-11-23T07:54:05.135Z,4.17
2023-11-23T07:59:09.167Z,3.60
2023-11-23T08:04:14.280Z,4.07
2023-11-23T08:09:20.695Z,5.07
2023-11-23T08:14:24.227Z,4.17
2023-11-23T08:19:31.630Z,4.00
2023-11-23T08:24:35.321Z,3.90
2023-11-23T08:29:40.037Z,4.20
2023-11-23T08:34:45.246Z,4.37
2023-11-23T08:39:50.046Z,5.67
2023-11-23T08:44:53.593Z,6.30
2023-11-23T08:49:58.481Z,5.73
2023-11-23T08:55:02.035Z,4.83
2023-11-23T09:00:10.829Z,4.37
2023-11-23T09:05:15.938Z,5.00
2023-11-23T09:10:19.386Z,4.27
2023-11-23T09:15:24.289Z,4.50
2023-11-23T09:20:29.464Z,3.83
2023-11-23T09:25:35.328Z,3.27
2023-11-23T09:30:40.024Z,2.83
2023-11-23T09:35:45.035Z,3.73
2023-11-23T09:40:48.577Z,2.83
2023-11-23T09:45:52.808Z,3.00
2023-11-23T09:50:58.500Z,2.60
2023-11-23T09:56:02.438Z,3.10
2023-11-23T10:01:07.080Z,2.70
2023-11-23T10:06:12.180Z,3.00
2023-11-23T10:11:15.562Z,2.97
2023-11-23T10:16:18.880Z,2.73
2023-11-23T10:21:25.250Z,2.90
2023-11-23T10:26:28.727Z,3.60
2023-11-23T10:31:32.460Z,3.03
2023-11-23T10:36:39.054Z,4.63
2023-11-23T10:41:42.355Z,4.20
2023-11-23T10:46:45.815Z,4.37
2023-11-23T10:51:52.126Z,3.80
2023-11-23T10:56:57.184Z,3.30
2023-11-23T11:02:01.056Z,3.73
2023-11-23T11:07:06.454Z,3.33
2023-11-23T11:12:14.218Z,3.53
2023-11-23T11:17:17.767Z,3.40
2023-11-23T11:22:22.501Z,3.13
2023-11-23T11:27:26.997Z,3.03
2023-11-23T11:32:34.017Z,3.27
2023-11-23T11:37:41.089Z,3.70
2023-11-23T11:42:45.206Z,3.40
2023-11-23T11:47:48.748Z,3.43
2023-11-23T11:52:54.011Z,3.43
2023-11-23T11:57:57.482Z,3.47
2023-11-23T12:03:01.189Z,3.20
2023-11-23T12:08:06.320Z,3.07
2023-11-23T12:13:15.759Z,3.17
2023-11-23T12:18:29.967Z,2.97
2023-11-23T12:23:42.117Z,3.27
2023-11-23T12:28:48.365Z,3.63
2023-11-23T12:34:00.382Z,3.57
2023-11-23T12:39:06.834Z,4.33
2023-11-23T12:44:12.588Z,3.17
2023-11-23T12:49:16.429Z,3.30
2023-11-23T12:54:21.347Z,2.90
2023-11-23T12:59:24.684Z,2.23
2023-11-23T13:04:34.720Z,2.93
2023-11-23T13:09:40.079Z,3.20
2023-11-23T13:14:43.690Z,3.43
2023-11-23T13:19:49.414Z,2.93
2023-11-23T13:24:59.327Z,3.40
2023-11-23T13:30:03.951Z,3.27
2023-11-23T13:35:08.137Z,3.70
2023-11-23T13:40:14.461Z,2.87
2023-11-23T13:45:20.093Z,3.50
2023-11-23T13:50:26.461Z,3.33
2023-11-23T13:55:31.307Z,3.40
2023-11-23T14:00:34.771Z,3.30
2023-11-23T14:05:40.846Z,4.30
2023-11-23T14:10:46.628Z,3.73
2023-11-23T14:15:50.773Z,4.80
2023-11-23T14:20:54.803Z,4.23
2023-11-23T14:25:59.528Z,4.90
2023-11-23T14:31:03.733Z,3.30
2023-11-23T14:36:09.084Z,3.43
2023-11-23T14:41:15.054Z,2.90
2023-11-23T14:46:18.741Z,3.20
2023-11-23T14:51:23.788Z,4.13
2023-11-23T14:56:28.612Z,3.50
2023-11-23T15:01:33.401Z,4.97
2023-11-23T15:06:37.631Z,3.83
2023-11-23T15:11:43.811Z,2.97
2023-11-23T15:16:48.349Z,3.10
2023-11-23T15:21:52.049Z,3.67
2023-11-23T15:26:56.860Z,2.23
2023-11-23T15:32:03.789Z,2.77
2023-11-23T15:37:07.240Z,2.67
2023-11-23T15:42:12.879Z,2.17
2023-11-23T15:47:16.377Z,2.07
2023-11-23T15:52:19.829Z,2.20
2023-11-23T15:57:25.505Z,2.30
2023-11-23T16:02:29.259Z,2.07
2023-11-23T16:07:33.327Z,2.10
2023-11-23T16:12:38.063Z,2.00
2023-11-23T16:17:41.391Z,1.90
2023-11-23T16:22:45.661Z,2.07
2023-11-23T16:27:50.492Z,2.60
2023-11-23T16:32:55.622Z,3.13
2023-11-23T16:37:59.288Z,2.53
2023-11-23T16:43:04.136Z,2.30
2023-11-23T16:48:07.800Z,2.80
2023-11-23T16:53:11.443Z,3.30
2023-11-23T16:58:16.417Z,2.17
2023-11-23T17:03:19.804Z,2.77
2023-11-23T17:08:24.612Z,2.13
2023-11-23T17:13:29.396Z,2.53
2023-11-23T17:18:32.666Z,2.40
2023-11-23T17:23:37.379Z,3.13
2023-11-23T17:28:42.073Z,2.60
2023-11-23T17:33:45.451Z,2.47
2023-11-23T17:38:48.769Z,3.00
2023-11-23T17:43:53.534Z,3.90
2023-11-23T17:48:56.860Z,2.60
2023-11-23T17:54:04.818Z,1.90
2023-11-23T17:59:25.180Z,3.33
2023-11-23T18:04:33.476Z,2.90
2023-11-23T18:09:36.753Z,3.00
2023-11-23T18:14:41.534Z,2.20
2023-11-23T18:19:45.773Z,3.80
2023-11-23T18:24:49.451Z,2.80
2023-11-23T18:29:54.906Z,2.60
2023-11-23T18:34:58.274Z,2.30
2023-11-23T18:40:11.375Z,2.70
2023-11-23T18:45:16.382Z,2.97
2023-11-23T18:50:20.118Z,2.63
2023-11-23T18:55:25.462Z,2.87
2023-11-23T19:00:32.147Z,2.77
2023-11-23T19:05:36.460Z,2.40
2023-11-23T19:10:39.960Z,1.87
2023-11-23T19:15:46.583Z,2.47
2023-11-23T19:20:50.182Z,2.20
2023-11-23T19:25:55.090Z,2.63
2023-11-23T19:31:04.299Z,2.87
2023-11-23T19:36:11.040Z,1.70
2023-11-23T19:41:14.487Z,2.33
2023-11-23T19:46:19.539Z,2.00
2023-11-23T19:51:25.431Z,1.77
2023-11-23T19:56:29.163Z,2.50
2023-11-23T20:01:39.046Z,1.90
2023-11-23T20:06:43.743Z,2.00
2023-11-23T20:11:47.131Z,2.20
2023-11-23T20:16:51.884Z,2.40
2023-11-23T20:21:56.010Z,2.83
2023-11-23T20:26:59.439Z,2.60
2023-11-23T20:32:06.211Z,2.60
2023-11-23T20:37:09.672Z,2.47
2023-11-23T20:42:13.817Z,1.40
2023-11-23T20:47:21.422Z,1.53
2023-11-23T20:52:27.324Z,2.37
2023-11-23T20:57:33.727Z,1.70
2023-11-23T21:02:38.940Z,2.40
2023-11-23T21:07:42.498Z,2.10
2023-11-23T21:12:46.081Z,3.97
2023-11-23T21:17:50.965Z,2.60
2023-11-23T21:22:54.888Z,2.47
2023-11-23T21:27:58.380Z,1.93
2023-11-23T21:33:03.395Z,2.33
2023-11-23T21:38:07.042Z,2.23
2023-11-23T21:43:10.791Z,2.13
2023-11-23T21:48:15.698Z,2.13
2023-11-23T21:53:22.395Z,2.40
2023-11-23T21:58:25.759Z,2.40
2023-11-23T22:03:30.615Z,5.10
2023-11-23T22:08:34.288Z,3.03
2023-11-23T22:13:38.941Z,2.90
2023-11-23T22:18:44.355Z,2.70
2023-11-23T22:23:48.703Z,2.50
2023-11-23T22:28:52.340Z,2.57
2023-11-23T22:33:57.755Z,2.97
2023-11-23T22:39:01.478Z,2.60
2023-11-23T22:44:08.476Z,3.30
2023-11-23T22:49:14.465Z,2.20
2023-11-23T22:54:17.938Z,2.83
2023-11-23T22:59:21.853Z,2.40
2023-11-23T23:04:26.820Z,3.00
2023-11-23T23:09:31.616Z,3.70
2023-11-23T23:14:35.169Z,2.17
2023-11-23T23:19:39.898Z,3.27
2023-11-23T23:24:43.498Z,2.60
2023-11-23T23:29:46.801Z,2.03
2023-11-23T23:34:51.638Z,2.80
2023-11-23T23:39:55.132Z,2.73
2023-11-23T23:44:58.717Z,2.30
2023-11-23T23:50:05.797Z,3.73
2023-11-23T23:55:09.501Z,2.73
